sensor_id;sensor_type;location;lat;lon;timestamp;P1;durP1;ratioP1;P2;durP2;ratioP2
5646;SDS011;2845;48.626;9.362;2024-03-02T01:45:16;8.50;;;3.65;;
5646;SDS011;2845;48.626;9.362;2024-03-02T01:47:50;7.15;;;3.10;;
5646;SDS011;2845;48.626;9.362;2024-03-02T01:50:26;8.98;;;3.33;;
5646;SDS011;2845;48.626;9.362;2024-03-02T01:53:02;8.85;;;3.38;;
5646;SDS011;2845;48.626;9.362;2024-03-02T01:55:37;7.85;;;3.70;;
5646;SDS011;2845;48.626;9.362;2024-03-02T01:58:11;10.27;;;3.50;;
5646;SDS011;2845;48.626;9.362;2024-03-02T02:00:49;8.40;;;3.42;;
5646;SDS011;2845;48.626;9.362;2024-03-02T02:03:23;8.70;;;3.63;;
5646;SDS011;2845;48.626;9.362;2024-03-02T02:05:58;6.32;;;3.05;;
5646;SDS011;2845;48.626;9.362;2024-03-02T02:08:34;5.40;;;2.42;;
5646;SDS011;2845;48.626;9.362;2024-03-02T02:11:10;7.85;;;3.33;;
5646;SDS011;2845;48.626;9.362;2024-03-02T02:13:47;7.53;;;2.80;;
5646;SDS011;2845;48.626;9.362;2024-03-02T02:16:23;7.57;;;2.95;;
5646;SDS011;2845;48.626;9.362;2024-03-02T02:18:57;7.25;;;2.95;;
5646;SDS011;2845;48.626;9.362;2024-03-02T02:21:33;7.97;;;3.03;;
5646;SDS011;2845;48.626;9.362;2024-03-02T02:24:07;10.15;;;3.88;;
5646;SDS011;2845;48.626;9.362;2024-03-02T02:26:41;7.38;;;2.88;;
5646;SDS011;2845;48.626;9.362;2024-03-02T02:29:15;8.85;;;3.63;;
5646;SDS011;2845;48.626;9.362;2024-03-02T02:31:50;7.88;;;3.13;;
5646;SDS011;2845;48.626;9.362;2024-03-02T02:34:25;6.15;;;2.58;;
5646;SDS011;2845;48.626;9.362;2024-03-02T02:37:00;9.27;;;3.30;;
5646;SDS011;2845;48.626;9.362;2024-03-02T02:39:35;8.65;;;2.80;;
5646;SDS011;2845;48.626;9.362;2024-03-02T02:42:10;6.20;;;2.92;;
5646;SDS011;2845;48.626;9.362;2024-03-02T02:44:44;8.48;;;3.20;;
5646;SDS011;2845;48.626;9.362;2024-03-02T02:47:19;6.20;;;2.85;;
5646;SDS011;2845;48.626;9.362;2024-03-02T02:49:53;9.55;;;3.45;;
5646;SDS011;2845;48.626;9.362;2024-03-02T02:52:32;6.88;;;3.40;;
5646;SDS011;2845;48.626;9.362;2024-03-02T02:55:09;8.13;;;3.40;;
5646;SDS011;2845;48.626;9.362;2024-03-02T02:57:48;8.90;;;3.83;;
5646;SDS011;2845;48.626;9.362;2024-03-02T03:00:22;7.45;;;3.28;;
5646;SDS011;2845;48.626;9.362;2024-03-02T03:02:56;7.65;;;3.03;;
5646;SDS011;2845;48.626;9.362;2024-03-02T03:05:30;6.95;;;3.15;;
5646;SDS011;2845;48.626;9.362;2024-03-02T03:08:06;9.45;;;3.28;;
5646;SDS011;2845;48.626;9.362;2024-03-02T03:10:40;7.78;;;3.10;;
5646;SDS011;2845;48.626;9.362;2024-03-02T03:13:14;7.65;;;3.17;;
5646;SDS011;2845;48.626;9.362;2024-03-02T03:15:48;7.65;;;2.70;;
5646;SDS011;2845;48.626;9.362;2024-03-02T03:18:23;9.80;;;3.53;;
5646;SDS011;2845;48.626;9.362;2024-03-02T03:20:57;8.57;;;3.58;;
5646;SDS011;2845;48.626;9.362;2024-03-02T03:23:33;8.07;;;3.03;;
5646;SDS011;2845;48.626;9.362;2024-03-02T03:26:07;6.60;;;3.25;;
5646;SDS011;2845;48.626;9.362;2024-03-02T03:28:41;7.68;;;3.10;;
5646;SDS011;2845;48.626;9.362;2024-03-02T03:31:15;9.60;;;3.33;;
5646;SDS011;2845;48.626;9.362;2024-03-02T03:33:49;8.80;;;3.13;;
5646;SDS011;2845;48.626;9.362;2024-03-02T03:36:24;9.18;;;3.50;;
5646;SDS011;2845;48.626;9.362;2024-03-02T03:38:59;9.55;;;3.35;;
5646;SDS011;2845;48.626;9.362;2024-03-02T03:41:35;10.55;;;3.63;;
5646;SDS011;2845;48.626;9.362;2024-03-02T03:44:10;8.32;;;3.20;;
5646;SDS011;2845;48.626;9.362;2024-03-02T03:46:44;7.22;;;3.08;;
5646;SDS011;2845;48.626;9.362;2024-03-02T03:49:18;7.10;;;3.15;;
5646;SDS011;2845;48.626;9.362;2024-03-02T03:51:52;8.43;;;3.63;;
5646;SDS011;2845;48.626;9.362;2024-03-02T03:54:28;7.63;;;3.60;;
5646;SDS011;2845;48.626;9.362;2024-03-02T03:57:02;8.68;;;3.30;;
5646;SDS011;2845;48.626;9.362;2024-03-02T03:59:37;8.82;;;3.83;;
5646;SDS011;2845;48.626;9.362;2024-03-02T04:02:11;7.15;;;3.50;;
5646;SDS011;2845;48.626;9.362;2024-03-02T04:04:46;9.60;;;3.83;;
5646;SDS011;2845;48.626;9.362;2024-03-02T04:07:20;8.27;;;3.60;;
5646;SDS011;2845;48.626;9.362;2024-03-02T04:09:56;10.30;;;3.83;;
5646;SDS011;2845;48.626;9.362;2024-03-02T04:12:30;7.88;;;3.70;;
5646;SDS011;2845;48.626;9.362;2024-03-02T04:15:05;8.25;;;3.42;;
5646;SDS011;2845;48.626;9.362;2024-03-02T04:17:40;7.53;;;3.28;;
5646;SDS011;2845;48.626;9.362;2024-03-02T04:20:15;8.52;;;3.97;;
5646;SDS011;2845;48.626;9.362;2024-03-02T04:22:49;7.17;;;2.53;;
5646;SDS011;2845;48.626;9.362;2024-03-02T04:25:24;9.67;;;3.90;;
5646;SDS011;2845;48.626;9.362;2024-03-02T04:27:58;9.10;;;3.42;;
5646;SDS011;2845;48.626;9.362;2024-03-02T04:30:33;8.50;;;3.37;;
5646;SDS011;2845;48.626;9.362;2024-03-02T04:33:07;7.73;;;3.47;;
5646;SDS011;2845;48.626;9.362;2024-03-02T04:35:42;7.63;;;3.63;;
5646;SDS011;2845;48.626;9.362;2024-03-02T04:38:16;8.13;;;2.87;;
5646;SDS011;2845;48.626;9.362;2024-03-02T04:40:52;10.53;;;4.33;;
5646;SDS011;2845;48.626;9.362;2024-03-02T04:43:26;7.80;;;3.37;;
5646;SDS011;2845;48.626;9.362;2024-03-02T04:46:00;7.70;;;3.10;;
5646;SDS011;2845;48.626;9.362;2024-03-02T04:48:36;7.07;;;3.27;;
5646;SDS011;2845;48.626;9.362;2024-03-02T04:51:10;8.13;;;3.13;;
5646;SDS011;2845;48.626;9.362;2024-03-02T04:53:45;9.27;;;3.50;;
5646;SDS011;2845;48.626;9.362;2024-03-02T04:56:21;7.70;;;3.43;;
5646;SDS011;2845;48.626;9.362;2024-03-02T04:59:16;6.77;;;2.80;;
5646;SDS011;2845;48.626;9.362;2024-03-02T05:01:51;8.93;;;3.10;;
5646;SDS011;2845;48.626;9.362;2024-03-02T05:04:25;7.57;;;3.83;;
5646;SDS011;2845;48.626;9.362;2024-03-02T05:06:59;9.20;;;3.60;;
5646;SDS011;2845;48.626;9.362;2024-03-02T05:09:34;9.77;;;3.20;;
5646;SDS011;2845;48.626;9.362;2024-03-02T05:12:10;9.93;;;3.67;;
5646;SDS011;2845;48.626;9.362;2024-03-02T05:15:07;7.40;;;3.47;;
5646;SDS011;2845;48.626;9.362;2024-03-02T05:17:42;7.97;;;3.87;;
5646;SDS011;2845;48.626;9.362;2024-03-02T05:20:17;8.85;;;3.58;;
5646;SDS011;2845;48.626;9.362;2024-03-02T05:22:52;6.70;;;3.53;;
5646;SDS011;2845;48.626;9.362;2024-03-02T05:25:26;6.40;;;3.20;;
5646;SDS011;2845;48.626;9.362;2024-03-02T05:28:02;8.50;;;3.13;;
5646;SDS011;2845;48.626;9.362;2024-03-02T05:30:37;7.57;;;3.10;;
5646;SDS011;2845;48.626;9.362;2024-03-02T05:33:11;6.57;;;2.90;;
5646;SDS011;2845;48.626;9.362;2024-03-02T05:35:46;7.70;;;3.03;;
5646;SDS011;2845;48.626;9.362;2024-03-02T05:38:22;8.53;;;4.00;;
5646;SDS011;2845;48.626;9.362;2024-03-02T05:40:56;7.47;;;2.80;;
5646;SDS011;2845;48.626;9.362;2024-03-02T05:43:32;10.77;;;3.60;;
5646;SDS011;2845;48.626;9.362;2024-03-02T05:46:06;9.23;;;3.23;;
5646;SDS011;2845;48.626;9.362;2024-03-02T05:48:40;5.25;;;2.53;;
5646;SDS011;2845;48.626;9.362;2024-03-02T05:51:15;8.77;;;3.23;;
5646;SDS011;2845;48.626;9.362;2024-03-02T05:53:49;10.25;;;3.58;;
5646;SDS011;2845;48.626;9.362;2024-03-02T05:56:23;9.17;;;4.23;;
5646;SDS011;2845;48.626;9.362;2024-03-02T05:58:59;9.33;;;4.23;;
5646;SDS011;2845;48.626;9.362;2024-03-02T06:01:45;7.47;;;4.10;;
5646;SDS011;2845;48.626;9.362;2024-03-02T06:04:24;11.03;;;3.73;;
5646;SDS011;2845;48.626;9.362;2024-03-02T06:06:58;7.83;;;3.37;;
5646;SDS011;2845;48.626;9.362;2024-03-02T06:09:32;9.13;;;4.03;;
5646;SDS011;2845;48.626;9.362;2024-03-02T06:12:07;7.27;;;3.07;;
5646;SDS011;2845;48.626;9.362;2024-03-02T06:14:43;10.50;;;3.37;;
5646;SDS011;2845;48.626;9.362;2024-03-02T06:17:17;9.40;;;3.57;;
5646;SDS011;2845;48.626;9.362;2024-03-02T06:19:52;7.23;;;2.83;;
5646;SDS011;2845;48.626;9.362;2024-03-02T06:22:26;7.97;;;3.70;;
5646;SDS011;2845;48.626;9.362;2024-03-02T06:25:00;6.57;;;3.23;;
5646;SDS011;2845;48.626;9.362;2024-03-02T06:27:34;8.43;;;3.53;;
5646;SDS011;2845;48.626;9.362;2024-03-02T06:30:11;6.90;;;3.07;;
5646;SDS011;2845;48.626;9.362;2024-03-02T06:32:46;7.37;;;3.47;;
5646;SDS011;2845;48.626;9.362;2024-03-02T06:35:21;6.93;;;2.87;;
5646;SDS011;2845;48.626;9.362;2024-03-02T06:37:55;6.97;;;2.90;;
5646;SDS011;2845;48.626;9.362;2024-03-02T06:40:29;6.13;;;2.93;;
5646;SDS011;2845;48.626;9.362;2024-03-02T06:43:03;8.40;;;4.03;;
5646;SDS011;2845;48.626;9.362;2024-03-02T06:45:39;8.40;;;3.17;;
5646;SDS011;2845;48.626;9.362;2024-03-02T06:48:13;8.00;;;2.87;;
5646;SDS011;2845;48.626;9.362;2024-03-02T06:50:51;7.40;;;3.05;;
5646;SDS011;2845;48.626;9.362;2024-03-02T06:53:26;5.67;;;2.23;;
5646;SDS011;2845;48.626;9.362;2024-03-02T06:56:00;8.23;;;2.80;;
5646;SDS011;2845;48.626;9.362;2024-03-02T06:58:34;7.50;;;2.97;;
5646;SDS011;2845;48.626;9.362;2024-03-02T07:01:10;6.82;;;2.72;;
5646;SDS011;2845;48.626;9.362;2024-03-02T07:03:44;5.97;;;2.83;;
5646;SDS011;2845;48.626;9.362;2024-03-02T07:06:18;9.35;;;3.30;;
5646;SDS011;2845;48.626;9.362;2024-03-02T07:08:53;8.48;;;2.90;;
5646;SDS011;2845;48.626;9.362;2024-03-02T07:11:27;6.65;;;2.70;;
5646;SDS011;2845;48.626;9.362;2024-03-02T07:14:01;6.75;;;2.80;;
5646;SDS011;2845;48.626;9.362;2024-03-02T07:16:38;7.25;;;3.03;;
5646;SDS011;2845;48.626;9.362;2024-03-02T07:19:13;11.32;;;3.63;;
5646;SDS011;2845;48.626;9.362;2024-03-02T07:21:47;9.57;;;4.20;;
5646;SDS011;2845;48.626;9.362;2024-03-02T07:24:22;7.45;;;3.00;;
5646;SDS011;2845;48.626;9.362;2024-03-02T07:26:56;8.02;;;4.18;;
5646;SDS011;2845;48.626;9.362;2024-03-02T07:29:30;9.07;;;3.40;;
5646;SDS011;2845;48.626;9.362;2024-03-02T07:32:07;8.27;;;3.00;;
5646;SDS011;2845;48.626;9.362;2024-03-02T07:34:43;8.20;;;3.20;;
5646;SDS011;2845;48.626;9.362;2024-03-02T07:37:18;9.95;;;3.53;;
5646;SDS011;2845;48.626;9.362;2024-03-02T07:39:52;6.00;;;2.47;;
5646;SDS011;2845;48.626;9.362;2024-03-02T07:42:27;6.88;;;2.80;;
5646;SDS011;2845;48.626;9.362;2024-03-02T07:45:01;5.78;;;2.53;;
5646;SDS011;2845;48.626;9.362;2024-03-02T07:51:21;5.65;;;2.53;;
5646;SDS011;2845;48.626;9.362;2024-03-02T07:53:55;5.30;;;2.88;;
5646;SDS011;2845;48.626;9.362;2024-03-02T07:56:29;5.97;;;2.42;;
5646;SDS011;2845;48.626;9.362;2024-03-02T07:59:04;7.28;;;2.72;;
5646;SDS011;2845;48.626;9.362;2024-03-02T08:01:39;7.00;;;3.10;;
5646;SDS011;2845;48.626;9.362;2024-03-02T08:04:15;5.28;;;2.67;;
5646;SDS011;2845;48.626;9.362;2024-03-02T08:06:49;6.63;;;2.60;;
5646;SDS011;2845;48.626;9.362;2024-03-02T08:09:24;6.97;;;2.60;;
5646;SDS011;2845;48.626;9.362;2024-03-02T08:11:59;6.15;;;2.45;;
5646;SDS011;2845;48.626;9.362;2024-03-02T08:14:33;6.18;;;2.75;;
5646;SDS011;2845;48.626;9.362;2024-03-02T08:17:08;5.07;;;2.22;;
5646;SDS011;2845;48.626;9.362;2024-03-02T08:19:45;6.68;;;2.83;;
5646;SDS011;2845;48.626;9.362;2024-03-02T08:22:20;4.78;;;2.40;;
5646;SDS011;2845;48.626;9.362;2024-03-02T08:24:55;6.00;;;2.67;;
5646;SDS011;2845;48.626;9.362;2024-03-02T08:27:29;5.05;;;2.50;;
5646;SDS011;2845;48.626;9.362;2024-03-02T08:30:06;4.53;;;2.22;;
5646;SDS011;2845;48.626;9.362;2024-03-02T08:32:43;5.85;;;2.22;;
5646;SDS011;2845;48.626;9.362;2024-03-02T08:35:19;4.82;;;2.63;;
5646;SDS011;2845;48.626;9.362;2024-03-02T08:37:54;4.30;;;2.28;;
5646;SDS011;2845;48.626;9.362;2024-03-02T08:40:29;5.10;;;2.65;;
5646;SDS011;2845;48.626;9.362;2024-03-02T08:43:04;6.07;;;2.25;;
5646;SDS011;2845;48.626;9.362;2024-03-02T08:45:39;4.97;;;2.58;;
5646;SDS011;2845;48.626;9.362;2024-03-02T08:48:14;6.45;;;2.45;;
5646;SDS011;2845;48.626;9.362;2024-03-02T08:50:50;5.60;;;2.80;;
5646;SDS011;2845;48.626;9.362;2024-03-02T08:53:30;6.63;;;2.75;;
5646;SDS011;2845;48.626;9.362;2024-03-02T08:56:04;5.88;;;2.22;;
5646;SDS011;2845;48.626;9.362;2024-03-02T08:58:42;3.08;;;1.65;;
5646;SDS011;2845;48.626;9.362;2024-03-02T09:01:18;6.78;;;3.35;;
5646;SDS011;2845;48.626;9.362;2024-03-02T09:03:54;7.30;;;3.35;;
5646;SDS011;2845;48.626;9.362;2024-03-02T09:06:38;6.88;;;3.38;;
5646;SDS011;2845;48.626;9.362;2024-03-02T09:09:13;8.15;;;2.70;;
5646;SDS011;2845;48.626;9.362;2024-03-02T09:11:52;6.20;;;3.05;;
5646;SDS011;2845;48.626;9.362;2024-03-02T09:14:28;8.25;;;3.10;;
5646;SDS011;2845;48.626;9.362;2024-03-02T09:17:03;7.53;;;3.40;;
5646;SDS011;2845;48.626;9.362;2024-03-02T09:19:43;7.78;;;3.70;;
5646;SDS011;2845;48.626;9.362;2024-03-02T09:22:30;6.95;;;2.85;;
5646;SDS011;2845;48.626;9.362;2024-03-02T09:25:06;6.35;;;3.08;;
5646;SDS011;2845;48.626;9.362;2024-03-02T09:27:42;6.75;;;3.17;;
5646;SDS011;2845;48.626;9.362;2024-03-02T09:30:22;4.75;;;2.63;;
5646;SDS011;2845;48.626;9.362;2024-03-02T09:32:57;6.75;;;3.35;;
5646;SDS011;2845;48.626;9.362;2024-03-02T09:35:34;8.18;;;3.55;;
5646;SDS011;2845;48.626;9.362;2024-03-02T09:38:10;6.45;;;2.78;;
5646;SDS011;2845;48.626;9.362;2024-03-02T09:40:44;4.35;;;2.10;;
5646;SDS011;2845;48.626;9.362;2024-03-02T09:43:18;6.18;;;2.75;;
5646;SDS011;2845;48.626;9.362;2024-03-02T09:45:53;6.10;;;3.15;;
5646;SDS011;2845;48.626;9.362;2024-03-02T09:48:27;5.45;;;2.47;;
5646;SDS011;2845;48.626;9.362;2024-03-02T09:51:01;4.53;;;2.20;;
5646;SDS011;2845;48.626;9.362;2024-03-02T09:53:39;5.78;;;2.45;;
5646;SDS011;2845;48.626;9.362;2024-03-02T09:56:13;5.63;;;2.95;;
5646;SDS011;2845;48.626;9.362;2024-03-02T09:58:48;5.32;;;2.40;;
5646;SDS011;2845;48.626;9.362;2024-03-02T10:01:24;5.13;;;2.30;;
5646;SDS011;2845;48.626;9.362;2024-03-02T10:03:58;4.70;;;2.13;;
5646;SDS011;2845;48.626;9.362;2024-03-02T10:06:34;4.80;;;2.53;;
5646;SDS011;2845;48.626;9.362;2024-03-02T10:09:10;5.15;;;2.13;;
5646;SDS011;2845;48.626;9.362;2024-03-02T10:11:47;5.53;;;2.53;;
5646;SDS011;2845;48.626;9.362;2024-03-02T10:14:22;6.05;;;2.42;;
5646;SDS011;2845;48.626;9.362;2024-03-02T10:16:56;5.32;;;2.83;;
5646;SDS011;2845;48.626;9.362;2024-03-02T10:19:37;4.95;;;2.08;;
5646;SDS011;2845;48.626;9.362;2024-03-02T10:22:12;5.10;;;2.25;;
5646;SDS011;2845;48.626;9.362;2024-03-02T10:24:49;4.55;;;2.20;;
5646;SDS011;2845;48.626;9.362;2024-03-02T10:27:30;3.53;;;1.38;;
5646;SDS011;2845;48.626;9.362;2024-03-02T10:30:08;3.50;;;1.40;;
5646;SDS011;2845;48.626;9.362;2024-03-02T10:32:46;5.15;;;2.72;;
5646;SDS011;2845;48.626;9.362;2024-03-02T10:35:20;5.57;;;2.05;;
5646;SDS011;2845;48.626;9.362;2024-03-02T10:37:55;4.13;;;2.25;;
5646;SDS011;2845;48.626;9.362;2024-03-02T10:40:31;7.45;;;3.10;;
5646;SDS011;2845;48.626;9.362;2024-03-02T10:43:05;6.13;;;2.85;;
5646;SDS011;2845;48.626;9.362;2024-03-02T10:45:41;6.05;;;3.05;;
5646;SDS011;2845;48.626;9.362;2024-03-02T10:48:16;5.70;;;2.67;;
5646;SDS011;2845;48.626;9.362;2024-03-02T10:50:50;5.15;;;2.80;;
5646;SDS011;2845;48.626;9.362;2024-03-02T10:53:25;7.68;;;2.58;;
5646;SDS011;2845;48.626;9.362;2024-03-02T10:56:01;3.88;;;1.92;;
5646;SDS011;2845;48.626;9.362;2024-03-02T10:58:38;4.30;;;1.77;;
5646;SDS011;2845;48.626;9.362;2024-03-02T11:01:13;3.55;;;1.63;;
5646;SDS011;2845;48.626;9.362;2024-03-02T11:03:48;3.92;;;1.67;;
5646;SDS011;2845;48.626;9.362;2024-03-02T11:06:27;3.97;;;1.63;;
5646;SDS011;2845;48.626;9.362;2024-03-02T11:09:06;4.47;;;1.90;;
5646;SDS011;2845;48.626;9.362;2024-03-02T11:11:43;3.30;;;1.40;;
5646;SDS011;2845;48.626;9.362;2024-03-02T11:14:19;2.60;;;1.20;;
5646;SDS011;2845;48.626;9.362;2024-03-02T11:17:00;2.25;;;1.05;;
5646;SDS011;2845;48.626;9.362;2024-03-02T11:19:37;2.67;;;1.30;;
5646;SDS011;2845;48.626;9.362;2024-03-02T11:22:15;2.38;;;1.00;;
5646;SDS011;2845;48.626;9.362;2024-03-02T11:24:52;3.17;;;1.23;;
5646;SDS011;2845;48.626;9.362;2024-03-02T11:30:54;2.05;;;1.00;;
5646;SDS011;2845;48.626;9.362;2024-03-02T11:33:28;2.42;;;0.70;;
5646;SDS011;2845;48.626;9.362;2024-03-02T11:36:04;3.03;;;1.20;;
5646;SDS011;2845;48.626;9.362;2024-03-02T11:38:43;2.40;;;1.00;;
5646;SDS011;2845;48.626;9.362;2024-03-02T11:41:19;2.05;;;0.60;;
5646;SDS011;2845;48.626;9.362;2024-03-02T11:43:55;1.80;;;0.60;;
5646;SDS011;2845;48.626;9.362;2024-03-02T11:46:29;0.88;;;0.43;;
5646;SDS011;2845;48.626;9.362;2024-03-02T11:49:04;1.27;;;0.45;;
5646;SDS011;2845;48.626;9.362;2024-03-02T11:51:50;2.08;;;0.70;;
5646;SDS011;2845;48.626;9.362;2024-03-02T11:54:36;0.93;;;0.40;;
5646;SDS011;2845;48.626;9.362;2024-03-02T11:57:13;1.65;;;0.50;;
5646;SDS011;2845;48.626;9.362;2024-03-02T11:59:52;1.02;;;0.30;;
5646;SDS011;2845;48.626;9.362;2024-03-02T12:02:39;0.77;;;0.32;;
5646;SDS011;2845;48.626;9.362;2024-03-02T12:05:19;2.35;;;0.30;;
5646;SDS011;2845;48.626;9.362;2024-03-02T12:07:55;1.30;;;0.60;;
5646;SDS011;2845;48.626;9.362;2024-03-02T12:10:31;1.15;;;0.30;;
5646;SDS011;2845;48.626;9.362;2024-03-02T12:13:06;0.40;;;0.20;;
5646;SDS011;2845;48.626;9.362;2024-03-02T12:15:44;0.28;;;0.10;;
5646;SDS011;2845;48.626;9.362;2024-03-02T12:18:19;0.77;;;0.32;;
5646;SDS011;2845;48.626;9.362;2024-03-02T12:20:53;0.22;;;0.20;;
5646;SDS011;2845;48.626;9.362;2024-03-02T12:23:30;0.63;;;0.20;;
5646;SDS011;2845;48.626;9.362;2024-03-02T12:26:04;0.82;;;0.40;;
5646;SDS011;2845;48.626;9.362;2024-03-02T12:28:43;0.32;;;0.15;;
5646;SDS011;2845;48.626;9.362;2024-03-02T12:31:23;1.08;;;0.20;;
5646;SDS011;2845;48.626;9.362;2024-03-02T12:34:01;0.38;;;0.20;;
5646;SDS011;2845;48.626;9.362;2024-03-02T12:36:37;0.95;;;0.30;;
5646;SDS011;2845;48.626;9.362;2024-03-02T12:39:11;0.30;;;0.20;;
5646;SDS011;2845;48.626;9.362;2024-03-02T12:41:46;0.88;;;0.35;;
5646;SDS011;2845;48.626;9.362;2024-03-02T12:44:23;1.50;;;0.50;;
5646;SDS011;2845;48.626;9.362;2024-03-02T12:46:58;2.35;;;0.40;;
5646;SDS011;2845;48.626;9.362;2024-03-02T12:49:33;0.77;;;0.25;;
5646;SDS011;2845;48.626;9.362;2024-03-02T12:52:11;0.70;;;0.38;;
5646;SDS011;2845;48.626;9.362;2024-03-02T12:54:46;2.22;;;0.22;;
5646;SDS011;2845;48.626;9.362;2024-03-02T12:59:57;0.50;;;0.22;;
5646;SDS011;2845;48.626;9.362;2024-03-02T13:02:34;0.22;;;0.20;;
5646;SDS011;2845;48.626;9.362;2024-03-02T13:05:09;0.70;;;0.30;;
5646;SDS011;2845;48.626;9.362;2024-03-02T13:07:46;0.28;;;0.20;;
5646;SDS011;2845;48.626;9.362;2024-03-02T13:10:21;0.77;;;0.35;;
5646;SDS011;2845;48.626;9.362;2024-03-02T13:12:56;0.85;;;0.30;;
5646;SDS011;2845;48.626;9.362;2024-03-02T13:15:30;0.40;;;0.20;;
5646;SDS011;2845;48.626;9.362;2024-03-02T13:18:08;0.40;;;0.22;;
5646;SDS011;2845;48.626;9.362;2024-03-02T13:20:50;1.13;;;0.30;;
5646;SDS011;2845;48.626;9.362;2024-03-02T13:23:24;1.50;;;0.30;;
5646;SDS011;2845;48.626;9.362;2024-03-02T13:25:58;0.45;;;0.20;;
5646;SDS011;2845;48.626;9.362;2024-03-02T13:28:33;0.30;;;0.30;;
5646;SDS011;2845;48.626;9.362;2024-03-02T13:31:07;0.30;;;0.20;;
5646;SDS011;2845;48.626;9.362;2024-03-02T13:33:43;6.30;;;2.58;;
5646;SDS011;2845;48.626;9.362;2024-03-02T13:36:17;2.25;;;0.57;;
5646;SDS011;2845;48.626;9.362;2024-03-02T13:38:51;1.42;;;0.45;;
5646;SDS011;2845;48.626;9.362;2024-03-02T13:41:26;0.60;;;0.30;;
5646;SDS011;2845;48.626;9.362;2024-03-02T13:44:00;1.30;;;0.28;;
5646;SDS011;2845;48.626;9.362;2024-03-02T13:46:34;2.55;;;0.30;;
5646;SDS011;2845;48.626;9.362;2024-03-02T13:49:10;0.88;;;0.30;;
5646;SDS011;2845;48.626;9.362;2024-03-02T13:51:44;0.50;;;0.20;;
5646;SDS011;2845;48.626;9.362;2024-03-02T13:54:18;0.30;;;0.20;;
5646;SDS011;2845;48.626;9.362;2024-03-02T13:56:52;0.22;;;0.20;;
5646;SDS011;2845;48.626;9.362;2024-03-02T13:59:27;0.90;;;0.25;;
5646;SDS011;2845;48.626;9.362;2024-03-02T14:02:01;1.75;;;0.17;;
5646;SDS011;2845;48.626;9.362;2024-03-02T14:04:38;0.65;;;0.20;;
5646;SDS011;2845;48.626;9.362;2024-03-02T14:07:12;0.10;;;0.10;;
5646;SDS011;2845;48.626;9.362;2024-03-02T14:09:46;0.60;;;0.30;;
5646;SDS011;2845;48.626;9.362;2024-03-02T14:12:21;0.70;;;0.30;;
5646;SDS011;2845;48.626;9.362;2024-03-02T14:14:55;0.52;;;0.25;;
5646;SDS011;2845;48.626;9.362;2024-03-02T14:17:30;0.47;;;0.20;;
5646;SDS011;2845;48.626;9.362;2024-03-02T14:20:07;1.00;;;0.28;;
5646;SDS011;2845;48.626;9.362;2024-03-02T14:22:42;0.85;;;0.30;;
5646;SDS011;2845;48.626;9.362;2024-03-02T14:25:17;0.52;;;0.30;;
5646;SDS011;2845;48.626;9.362;2024-03-02T14:27:51;1.00;;;0.40;;
5646;SDS011;2845;48.626;9.362;2024-03-02T14:30:45;0.63;;;0.30;;
5646;SDS011;2845;48.626;9.362;2024-03-02T14:33:20;0.22;;;0.10;;
5646;SDS011;2845;48.626;9.362;2024-03-02T14:35:56;0.95;;;0.20;;
5646;SDS011;2845;48.626;9.362;2024-03-02T14:38:30;0.55;;;0.20;;
5646;SDS011;2845;48.626;9.362;2024-03-02T14:41:04;1.08;;;0.30;;
5646;SDS011;2845;48.626;9.362;2024-03-02T14:43:39;0.63;;;0.20;;
5646;SDS011;2845;48.626;9.362;2024-03-02T14:46:13;0.43;;;0.20;;
5646;SDS011;2845;48.626;9.362;2024-03-02T14:48:48;0.70;;;0.20;;
5646;SDS011;2845;48.626;9.362;2024-03-02T14:51:24;0.73;;;0.40;;
5646;SDS011;2845;48.626;9.362;2024-03-02T14:53:58;0.80;;;0.40;;
5646;SDS011;2845;48.626;9.362;2024-03-02T14:56:33;0.63;;;0.28;;
5646;SDS011;2845;48.626;9.362;2024-03-02T14:59:07;0.73;;;0.30;;
5646;SDS011;2845;48.626;9.362;2024-03-02T15:01:42;0.55;;;0.22;;
5646;SDS011;2845;48.626;9.362;2024-03-02T15:04:17;1.23;;;0.40;;
5646;SDS011;2845;48.626;9.362;2024-03-02T15:06:55;0.80;;;0.25;;
5646;SDS011;2845;48.626;9.362;2024-03-02T15:09:29;0.88;;;0.20;;
5646;SDS011;2845;48.626;9.362;2024-03-02T15:12:04;0.73;;;0.30;;
5646;SDS011;2845;48.626;9.362;2024-03-02T15:14:42;1.00;;;0.73;;
5646;SDS011;2845;48.626;9.362;2024-03-02T15:17:18;2.95;;;0.47;;
5646;SDS011;2845;48.626;9.362;2024-03-02T15:19:52;0.73;;;0.20;;
5646;SDS011;2845;48.626;9.362;2024-03-02T15:22:27;0.43;;;0.20;;
5646;SDS011;2845;48.626;9.362;2024-03-02T15:25:02;1.48;;;0.52;;
5646;SDS011;2845;48.626;9.362;2024-03-02T15:27:37;3.13;;;0.73;;
5646;SDS011;2845;48.626;9.362;2024-03-02T15:30:12;1.27;;;0.60;;
5646;SDS011;2845;48.626;9.362;2024-03-02T15:32:47;0.82;;;0.38;;
5646;SDS011;2845;48.626;9.362;2024-03-02T15:35:22;1.42;;;0.30;;
5646;SDS011;2845;48.626;9.362;2024-03-02T15:37:58;1.45;;;0.50;;
5646;SDS011;2845;48.626;9.362;2024-03-02T15:40:32;0.70;;;0.40;;
5646;SDS011;2845;48.626;9.362;2024-03-02T15:43:07;0.90;;;0.30;;
5646;SDS011;2845;48.626;9.362;2024-03-02T15:45:41;2.55;;;0.30;;
5646;SDS011;2845;48.626;9.362;2024-03-02T15:48:15;1.42;;;0.47;;
5646;SDS011;2845;48.626;9.362;2024-03-02T15:50:49;0.90;;;0.50;;
5646;SDS011;2845;48.626;9.362;2024-03-02T15:53:26;1.48;;;0.40;;
5646;SDS011;2845;48.626;9.362;2024-03-02T15:56:01;1.83;;;0.50;;
5646;SDS011;2845;48.626;9.362;2024-03-02T15:58:40;0.82;;;0.40;;
5646;SDS011;2845;48.626;9.362;2024-03-02T16:01:14;1.33;;;0.50;;
5646;SDS011;2845;48.626;9.362;2024-03-02T16:03:49;0.70;;;0.40;;
5646;SDS011;2845;48.626;9.362;2024-03-02T16:06:24;1.63;;;0.50;;
5646;SDS011;2845;48.626;9.362;2024-03-02T16:09:00;1.83;;;0.57;;
5646;SDS011;2845;48.626;9.362;2024-03-02T16:11:34;1.10;;;0.50;;
5646;SDS011;2845;48.626;9.362;2024-03-02T16:14:08;0.80;;;0.60;;
5646;SDS011;2845;48.626;9.362;2024-03-02T16:16:42;2.20;;;0.70;;
5646;SDS011;2845;48.626;9.362;2024-03-02T16:19:17;1.20;;;0.60;;
5646;SDS011;2845;48.626;9.362;2024-03-02T16:22:03;2.00;;;0.80;;
5646;SDS011;2845;48.626;9.362;2024-03-02T16:24:40;2.00;;;0.70;;
5646;SDS011;2845;48.626;9.362;2024-03-02T16:27:14;2.10;;;0.70;;
5646;SDS011;2845;48.626;9.362;2024-03-02T16:29:50;2.10;;;0.82;;
5646;SDS011;2845;48.626;9.362;2024-03-02T16:32:26;3.65;;;1.17;;
5646;SDS011;2845;48.626;9.362;2024-03-02T16:35:00;2.10;;;0.95;;
5646;SDS011;2845;48.626;9.362;2024-03-02T16:37:35;2.55;;;1.00;;
5646;SDS011;2845;48.626;9.362;2024-03-02T16:40:11;2.28;;;1.20;;
5646;SDS011;2845;48.626;9.362;2024-03-02T16:42:46;2.05;;;0.82;;
5646;SDS011;2845;48.626;9.362;2024-03-02T16:45:25;1.98;;;0.88;;
5646;SDS011;2845;48.626;9.362;2024-03-02T16:48:01;3.20;;;1.05;;
5646;SDS011;2845;48.626;9.362;2024-03-02T16:50:36;1.45;;;0.75;;
5646;SDS011;2845;48.626;9.362;2024-03-02T16:53:10;2.03;;;1.08;;
5646;SDS011;2845;48.626;9.362;2024-03-02T16:55:46;2.55;;;1.52;;
5646;SDS011;2845;48.626;9.362;2024-03-02T16:58:20;3.47;;;1.42;;
5646;SDS011;2845;48.626;9.362;2024-03-02T17:00:54;3.30;;;1.25;;
5646;SDS011;2845;48.626;9.362;2024-03-02T17:03:28;2.22;;;1.13;;
5646;SDS011;2845;48.626;9.362;2024-03-02T17:06:03;3.25;;;1.58;;
5646;SDS011;2845;48.626;9.362;2024-03-02T17:08:37;2.65;;;1.38;;
5646;SDS011;2845;48.626;9.362;2024-03-02T17:11:13;4.78;;;1.77;;
5646;SDS011;2845;48.626;9.362;2024-03-02T17:13:48;4.00;;;1.52;;
5646;SDS011;2845;48.626;9.362;2024-03-02T17:16:24;2.55;;;1.20;;
5646;SDS011;2845;48.626;9.362;2024-03-02T17:18:59;2.75;;;1.52;;
5646;SDS011;2845;48.626;9.362;2024-03-02T17:21:33;3.25;;;1.70;;
5646;SDS011;2845;48.626;9.362;2024-03-02T17:24:07;3.20;;;1.42;;
5646;SDS011;2845;48.626;9.362;2024-03-02T17:26:43;4.97;;;1.90;;
5646;SDS011;2845;48.626;9.362;2024-03-02T17:29:17;5.05;;;2.47;;
5646;SDS011;2845;48.626;9.362;2024-03-02T17:31:51;4.35;;;2.03;;
5646;SDS011;2845;48.626;9.362;2024-03-02T17:34:27;5.43;;;2.30;;
5646;SDS011;2845;48.626;9.362;2024-03-02T17:37:01;4.70;;;2.15;;
5646;SDS011;2845;48.626;9.362;2024-03-02T17:39:36;5.90;;;2.53;;
5646;SDS011;2845;48.626;9.362;2024-03-02T17:42:12;5.45;;;2.75;;
5646;SDS011;2845;48.626;9.362;2024-03-02T17:44:46;5.03;;;2.75;;
5646;SDS011;2845;48.626;9.362;2024-03-02T17:47:20;5.90;;;2.63;;
5646;SDS011;2845;48.626;9.362;2024-03-02T17:49:55;6.38;;;2.63;;
5646;SDS011;2845;48.626;9.362;2024-03-02T17:52:29;4.63;;;2.33;;
5646;SDS011;2845;48.626;9.362;2024-03-02T17:55:03;8.32;;;3.10;;
5646;SDS011;2845;48.626;9.362;2024-03-02T17:57:40;5.80;;;3.20;;
5646;SDS011;2845;48.626;9.362;2024-03-02T18:00:15;7.35;;;3.05;;